Time;durP1;ratioP1;P1;durP2;ratioP2;P2;SDS_P1;SDS_P2;PMS_P1;PMS_P2;Temp;Humidity;BMP_temperature;BMP_pressure;BME280_temperature;BME280_humidity;BME280_pressure;Samples;Min_cycle;Max_cycle;Signal;HPM_P1;HPM_P2
2023/12/20 00:01:35;;;;;;;12.90;2.83;;;6.40;99.90;;;;;;5047281;28;20056;-79
2023/12/20 00:04:02;;;;;;;13.07;2.75;;;6.30;99.90;;;;;;5067465;28;20041;-77
2023/12/20 00:06:28;;;;;;;16.75;3.17;;;6.30;99.90;;;;;;5053025;28;20055;-78
2023/12/20 00:08:53;;;;;;;13.43;3.33;;;6.40;99.90;;;;;;5048391;28;20451;-79
2023/12/20 00:11:19;;;;;;;18.45;3.25;;;6.30;99.90;;;;;;5043003;28;20148;-78
2023/12/20 00:13:45;;;;;;;12.55;3.03;;;6.30;99.90;;;;;;5052630;28;20100;-78
2023/12/20 00:16:10;;;;;;;19.73;3.25;;;6.30;99.90;;;;;;5049575;28;20103;-79
2023/12/20 00:18:36;;;;;;;12.98;2.75;;;6.30;99.90;;;;;;5052708;28;20131;-78
2023/12/20 00:21:02;;;;;;;17.10;4.55;;;6.30;99.90;;;;;;5052268;28;20048;-76
2023/12/20 00:23:27;;;;;;;19.88;5.03;;;6.30;99.90;;;;;;5050110;28;20052;-79
2023/12/20 00:25:53;;;;;;;23.08;5.45;;;6.30;99.90;;;;;;5049222;28;20460;-79
2023/12/20 00:28:19;;;;;;;17.70;5.50;;;6.30;99.90;;;;;;5041552;28;20052;-78
2023/12/20 00:30:44;;;;;;;16.10;5.82;;;6.30;99.90;;;;;;5051515;28;20045;-78
2023/12/20 00:33:10;;;;;;;19.35;6.00;;;6.30;99.90;;;;;;5050873;28;20044;-78
2023/12/20 00:35:36;;;;;;;20.27;5.38;;;6.30;99.90;;;;;;5050677;28;20044;-77
2023/12/20 00:38:02;;;;;;;23.13;5.40;;;6.30;99.90;;;;;;5060829;28;20143;-76
2023/12/20 00:40:27;;;;;;;21.27;4.75;;;6.30;99.90;;;;;;5067719;28;20167;-79
2023/12/20 00:42:53;;;;;;;15.15;4.72;;;6.40;99.90;;;;;;5050756;28;20127;-77
2023/12/20 00:45:19;;;;;;;21.77;4.78;;;6.30;99.90;;;;;;5051479;28;20045;-78
2023/12/20 00:47:45;;;;;;;15.20;3.88;;;6.30;99.90;;;;;;5051198;28;20049;-79
2023/12/20 00:50:10;;;;;;;12.70;3.80;;;6.30;99.90;;;;;;5050085;28;20060;-78
2023/12/20 00:52:36;;;;;;;18.02;3.47;;;6.30;99.90;;;;;;5051993;28;20037;-78
2023/12/20 00:55:03;;;;;;;19.95;3.80;;;6.40;99.90;;;;;;5043585;28;20059;-79
2023/12/20 00:57:29;;;;;;;14.93;3.05;;;6.40;99.90;;;;;;5067685;28;20048;-80
2023/12/20 00:59:55;;;;;;;11.65;2.60;;;6.40;99.90;;;;;;5050990;28;20138;-79
2023/12/20 01:02:20;;;;;;;16.90;3.15;;;6.30;99.90;;;;;;5029924;28;20043;-79
2023/12/20 01:04:46;;;;;;;13.85;2.88;;;6.40;99.90;;;;;;5049023;28;20049;-78
2023/12/20 01:07:12;;;;;;;16.55;3.35;;;6.50;99.90;;;;;;5050511;28;20041;-78
2023/12/20 01:09:38;;;;;;;14.73;3.05;;;6.30;99.90;;;;;;5052172;28;20384;-80
2023/12/20 01:12:04;;;;;;;16.85;4.10;;;6.40;99.90;;;;;;5042742;28;20045;-79
2023/12/20 01:14:29;;;;;;;15.05;3.67;;;6.40;99.90;;;;;;5042769;28;20476;-78
2023/12/20 01:16:55;;;;;;;18.38;3.60;;;6.40;99.90;;;;;;5046618;28;20045;-78
2023/12/20 01:19:21;;;;;;;15.07;3.85;;;6.40;99.90;;;;;;5067160;28;20076;-80
2023/12/20 01:21:47;;;;;;;20.60;3.92;;;6.40;99.90;;;;;;5048571;28;20411;-79
2023/12/20 01:24:12;;;;;;;16.38;4.53;;;6.40;99.90;;;;;;5048337;28;20037;-78
2023/12/20 01:26:38;;;;;;;19.90;4.82;;;6.50;99.90;;;;;;5051804;28;20052;-78
2023/12/20 01:29:04;;;;;;;15.65;5.22;;;6.40;99.90;;;;;;5051660;28;20452;-79
2023/12/20 01:31:29;;;;;;;19.58;5.13;;;6.40;99.90;;;;;;5050121;28;20103;-79
2023/12/20 01:33:55;;;;;;;22.02;5.40;;;6.50;99.90;;;;;;5041758;28;20171;-76
2023/12/20 01:36:21;;;;;;;17.48;4.53;;;6.40;99.90;;;;;;5066789;28;20384;-77
2023/12/20 01:38:47;;;;;;;19.05;3.80;;;6.50;99.90;;;;;;5051842;28;20509;-78
2023/12/20 01:41:12;;;;;;;16.77;3.50;;;6.50;99.90;;;;;;5049746;28;20037;-76
2023/12/20 01:43:38;;;;;;;16.73;3.45;;;6.50;99.90;;;;;;5042646;28;20049;-77
2023/12/20 01:46:05;;;;;;;15.55;3.75;;;6.50;99.90;;;;;;5045732;28;20107;-77
2023/12/20 01:48:34;;;;;;;19.08;3.42;;;6.50;99.90;;;;;;5050169;28;20279;-77
2023/12/20 01:51:00;;;;;;;18.67;3.42;;;6.50;99.90;;;;;;5051406;28;20049;-76
2023/12/20 01:53:27;;;;;;;17.27;3.10;;;6.50;99.90;;;;;;5047030;28;20037;-77
2023/12/20 01:55:56;;;;;;;17.10;3.40;;;6.50;99.90;;;;;;5043886;28;20049;-78
2023/12/20 01:58:23;;;;;;;18.13;4.20;;;6.50;99.90;;;;;;5050756;28;20109;-79
2023/12/20 02:00:49;;;;;;;19.77;3.85;;;6.40;99.90;;;;;;5051598;28;20045;-77
2023/12/20 02:03:15;;;;;;;14.48;3.05;;;6.40;99.90;;;;;;5051006;28;20084;-75
2023/12/20 02:05:41;;;;;;;14.98;3.50;;;6.40;99.90;;;;;;5046237;28;20041;-77
2023/12/20 02:08:07;;;;;;;14.52;2.80;;;6.40;99.90;;;;;;5051532;28;20060;-76
2023/12/20 02:10:34;;;;;;;19.33;3.50;;;6.40;99.90;;;;;;5050756;28;20041;-77
2023/12/20 02:12:59;;;;;;;14.05;3.00;;;6.40;99.90;;;;;;5045548;28;20121;-78
2023/12/20 02:15:25;;;;;;;14.20;2.63;;;6.40;99.90;;;;;;5046141;28;20123;-76
2023/12/20 02:17:51;;;;;;;13.10;2.65;;;6.40;99.90;;;;;;5052559;28;20045;-78
2023/12/20 02:20:17;;;;;;;16.42;3.20;;;6.40;99.90;;;;;;5046185;28;20094;-75
2023/12/20 02:22:42;;;;;;;20.80;3.83;;;6.40;99.90;;;;;;5045808;28;20412;-78
2023/12/20 02:25:08;;;;;;;13.95;3.00;;;6.40;99.90;;;;;;5048984;28;20037;-78
2023/12/20 02:27:35;;;;;;;18.73;3.22;;;6.40;99.90;;;;;;5044603;28;20057;-77
2023/12/20 02:30:00;;;;;;;20.45;3.75;;;6.40;99.90;;;;;;5027790;28;20072;-79
2023/12/20 02:32:27;;;;;;;18.30;3.72;;;6.40;99.90;;;;;;5034759;28;20501;-79
2023/12/20 02:34:55;;;;;;;19.15;3.72;;;6.40;99.90;;;;;;5054757;28;20048;-78
2023/12/20 02:37:21;;;;;;;16.60;3.63;;;6.40;99.90;;;;;;5065335;28;20049;-78
2023/12/20 02:39:47;;;;;;;21.52;3.70;;;6.40;99.90;;;;;;5054559;28;20049;-79
2023/12/20 02:42:12;;;;;;;23.13;4.50;;;6.40;99.90;;;;;;5046634;28;20048;-79
2023/12/20 02:44:38;;;;;;;21.38;4.25;;;6.30;99.90;;;;;;5036323;28;20817;-78
2023/12/20 02:47:04;;;;;;;21.83;4.00;;;6.40;99.90;;;;;;5051584;28;20053;-78
2023/12/20 02:49:30;;;;;;;17.25;4.22;;;6.40;99.90;;;;;;5053698;28;20561;-75
2023/12/20 02:51:55;;;;;;;14.45;3.55;;;6.50;99.90;;;;;;5040599;28;20128;-79
2023/12/20 02:54:21;;;;;;;20.60;3.45;;;6.50;99.90;;;;;;5036187;28;20052;-75
2023/12/20 02:56:48;;;;;;;21.30;4.32;;;6.50;99.90;;;;;;5040657;28;20049;-79
2023/12/20 02:59:13;;;;;;;16.13;3.88;;;6.50;99.90;;;;;;5053271;28;20381;-78
2023/12/20 03:01:44;;;;;;;28.80;5.15;;;6.50;99.90;;;;;;5052144;28;20166;-77
2023/12/20 03:04:11;;;;;;;21.35;4.20;;;6.50;99.90;;;;;;5054020;28;20044;-78
2023/12/20 03:06:37;;;;;;;25.17;4.35;;;6.40;99.90;;;;;;5034326;28;20053;-77
2023/12/20 03:09:02;;;;;;;24.67;4.97;;;6.50;99.90;;;;;;5040878;28;20050;-77
2023/12/20 03:11:28;;;;;;;20.58;4.22;;;6.40;99.90;;;;;;5052432;28;20048;-77
2023/12/20 03:13:57;;;;;;;19.15;3.83;;;6.40;99.90;;;;;;5046005;28;20091;-76
2023/12/20 03:16:23;;;;;;;26.52;4.72;;;6.40;99.90;;;;;;5053708;28;20095;-75
2023/12/20 03:18:49;;;;;;;31.85;4.72;;;6.50;99.90;;;;;;5050893;28;20096;-77
2023/12/20 03:21:15;;;;;;;22.25;4.97;;;6.50;99.90;;;;;;5032971;28;20093;-78
2023/12/20 03:23:41;;;;;;;26.48;4.50;;;6.50;99.90;;;;;;5041888;28;20045;-78
2023/12/20 03:26:08;;;;;;;26.13;4.78;;;6.50;99.90;;;;;;5044760;28;20395;-75
2023/12/20 03:28:34;;;;;;;22.15;4.28;;;6.50;99.90;;;;;;5050527;28;20393;-76
2023/12/20 03:31:00;;;;;;;22.15;4.60;;;6.60;99.90;;;;;;5053837;28;20090;-76
2023/12/20 03:33:26;;;;;;;28.70;5.00;;;6.60;99.90;;;;;;5049726;28;20044;-74
2023/12/20 03:35:51;;;;;;;18.48;3.72;;;6.70;99.90;;;;;;5053331;28;20124;-73
2023/12/20 03:38:17;;;;;;;21.05;4.10;;;6.60;99.90;;;;;;5067698;28;20150;-75
2023/12/20 03:40:43;;;;;;;21.90;3.65;;;6.60;99.90;;;;;;5050921;28;20037;-76
2023/12/20 03:43:08;;;;;;;19.20;4.43;;;6.60;99.90;;;;;;5048674;28;20043;-75
2023/12/20 03:45:34;;;;;;;22.73;4.30;;;6.50;99.90;;;;;;5052770;28;20044;-76
2023/12/20 03:48:00;;;;;;;17.80;3.55;;;6.50;99.90;;;;;;5053538;28;20137;-76
2023/12/20 03:50:26;;;;;;;19.83;4.05;;;6.50;99.90;;;;;;5053025;28;20119;-77
2023/12/20 03:52:52;;;;;;;25.40;4.65;;;6.50;99.90;;;;;;5046704;28;20053;-75
2023/12/20 03:55:18;;;;;;;24.67;4.40;;;6.50;99.90;;;;;;5030653;28;20056;-79
2023/12/20 03:57:43;;;;;;;25.92;4.07;;;6.60;99.90;;;;;;5052666;28;20059;-78
2023/12/20 04:00:10;;;;;;;21.70;4.47;;;6.50;99.90;;;;;;5038972;28;20050;-75
2023/12/20 04:02:39;;;;;;;26.23;4.72;;;6.50;99.90;;;;;;5051692;28;20083;-75
2023/12/20 04:05:06;;;;;;;24.42;4.35;;;6.50;99.90;;;;;;5053235;28;20107;-78
2023/12/20 04:07:32;;;;;;;29.50;5.30;;;6.50;99.90;;;;;;5060368;28;20049;-78
2023/12/20 04:09:57;;;;;;;26.70;5.03;;;6.50;99.90;;;;;;5052524;28;20048;-77
2023/12/20 04:12:23;;;;;;;26.38;4.47;;;6.50;99.90;;;;;;5049842;28;20049;-78
2023/12/20 04:14:49;;;;;;;34.42;5.78;;;6.50;99.90;;;;;;5052964;28;20037;-79
2023/12/20 04:17:18;;;;;;;22.92;4.75;;;6.50;99.90;;;;;;5052490;28;20055;-79
2023/12/20 04:19:43;;;;;;;33.03;6.07;;;6.50;99.90;;;;;;5051575;28;20037;-79
2023/12/20 04:22:09;;;;;;;28.52;5.22;;;6.50;99.90;;;;;;5047047;28;20051;-77
2023/12/20 04:24:35;;;;;;;24.88;4.45;;;6.50;99.90;;;;;;5052539;28;20041;-77
2023/12/20 04:27:01;;;;;;;28.73;4.78;;;6.50;99.90;;;;;;5031596;28;20485;-77
2023/12/20 04:29:27;;;;;;;25.27;4.38;;;6.50;99.90;;;;;;5050265;28;20481;-78
2023/12/20 04:31:53;;;;;;;24.92;5.35;;;6.60;99.90;;;;;;5023042;28;20076;-75
2023/12/20 04:34:19;;;;;;;22.67;4.43;;;6.60;99.90;;;;;;5052782;28;20055;-78
2023/12/20 04:36:45;;;;;;;29.70;4.03;;;6.60;99.90;;;;;;5068077;28;20052;-78
2023/12/20 04:39:12;;;;;;;23.73;4.90;;;6.60;99.90;;;;;;5041981;28;20496;-77
2023/12/20 04:41:38;;;;;;;22.83;4.47;;;6.70;99.90;;;;;;5046045;28;20124;-77
2023/12/20 04:44:04;;;;;;;23.88;4.82;;;6.70;99.90;;;;;;5053258;28;20133;-78
2023/12/20 04:46:30;;;;;;;22.65;4.70;;;6.80;99.90;;;;;;5051384;28;20123;-79
2023/12/20 04:48:55;;;;;;;20.38;3.90;;;6.90;99.90;;;;;;5051782;28;20049;-77
2023/12/20 04:51:21;;;;;;;18.27;4.13;;;6.90;99.90;;;;;;5042466;28;20041;-79
2023/12/20 04:53:47;;;;;;;19.30;3.63;;;7.00;99.90;;;;;;5048035;28;20056;-78
2023/12/20 04:56:12;;;;;;;27.77;4.63;;;6.90;99.90;;;;;;5051814;28;20072;-78
2023/12/20 04:58:38;;;;;;;27.70;5.75;;;7.00;99.90;;;;;;5049812;28;20056;-76
2023/12/20 05:01:06;;;;;;;23.15;4.47;;;7.00;99.90;;;;;;5037674;28;20170;-78
2023/12/20 05:03:32;;;;;;;24.67;4.25;;;7.00;99.90;;;;;;5042064;28;20085;-78
2023/12/20 05:05:58;;;;;;;18.17;4.28;;;7.00;99.90;;;;;;5051079;28;20053;-78
2023/12/20 05:08:23;;;;;;;27.27;4.80;;;7.00;99.90;;;;;;5035077;28;20040;-79
2023/12/20 05:10:49;;;;;;;28.85;5.07;;;7.00;99.90;;;;;;5066622;28;20477;-79
2023/12/20 05:13:15;;;;;;;22.50;5.63;;;7.10;99.90;;;;;;5048960;28;20382;-80
2023/12/20 05:15:41;;;;;;;22.52;4.35;;;7.10;99.90;;;;;;5034202;28;20045;-76
2023/12/20 05:18:06;;;;;;;25.55;4.93;;;7.00;99.90;;;;;;5034686;28;20048;-79
2023/12/20 05:20:32;;;;;;;24.73;5.03;;;7.10;99.90;;;;;;5049867;28;20483;-78
2023/12/20 05:22:58;;;;;;;24.35;4.70;;;7.10;99.90;;;;;;5067459;28;20064;-77
2023/12/20 05:25:23;;;;;;;22.20;4.63;;;7.10;99.90;;;;;;5045081;28;20047;-78
2023/12/20 05:27:50;;;;;;;20.35;4.63;;;7.10;99.90;;;;;;5050933;28;20059;-79
2023/12/20 05:30:15;;;;;;;24.63;4.50;;;7.10;99.90;;;;;;5032134;28;20119;-78
2023/12/20 05:32:41;;;;;;;19.15;4.22;;;7.20;99.90;;;;;;5032519;28;20041;-76
2023/12/20 05:35:07;;;;;;;28.35;4.32;;;7.20;99.90;;;;;;5041908;28;20125;-77
2023/12/20 05:37:32;;;;;;;23.60;4.90;;;7.10;99.90;;;;;;5046087;28;20515;-78
2023/12/20 05:39:58;;;;;;;21.88;4.40;;;7.20;99.90;;;;;;5050240;28;20044;-78
2023/12/20 05:42:24;;;;;;;21.77;4.15;;;7.20;99.90;;;;;;5050823;28;20432;-79
2023/12/20 05:44:50;;;;;;;25.98;5.20;;;7.20;99.90;;;;;;5032876;28;20129;-78
2023/12/20 05:47:16;;;;;;;24.95;4.57;;;7.20;99.90;;;;;;5050774;28;20053;-78
2023/12/20 05:49:43;;;;;;;29.02;4.45;;;7.20;99.90;;;;;;5049970;28;20133;-78
2023/12/20 05:52:09;;;;;;;19.67;4.60;;;7.20;99.90;;;;;;5052254;28;20507;-76
2023/12/20 05:54:35;;;;;;;26.48;5.45;;;7.30;99.90;;;;;;5052017;28;20049;-77
2023/12/20 05:57:01;;;;;;;28.23;5.28;;;7.20;99.90;;;;;;5053799;28;20040;-76
2023/12/20 05:59:26;;;;;;;26.25;4.43;;;7.30;99.90;;;;;;5034264;28;20088;-75
2023/12/20 06:01:52;;;;;;;26.63;4.32;;;7.30;99.90;;;;;;5046884;28;20049;-75
2023/12/20 06:04:18;;;;;;;24.13;5.40;;;7.30;99.90;;;;;;5048116;28;20045;-76
2023/12/20 06:06:44;;;;;;;25.65;4.88;;;7.50;99.90;;;;;;5053349;28;20063;-76
2023/12/20 06:09:10;;;;;;;23.42;5.10;;;7.30;99.90;;;;;;5020299;28;20052;-75
2023/12/20 06:11:35;;;;;;;29.95;4.88;;;7.40;99.90;;;;;;5054027;28;20041;-78
2023/12/20 06:14:01;;;;;;;25.92;5.47;;;7.40;99.90;;;;;;5035644;28;20071;-77
2023/12/20 06:16:27;;;;;;;21.55;4.35;;;7.30;99.90;;;;;;5050873;28;20041;-76
2023/12/20 06:18:52;;;;;;;23.73;4.70;;;7.40;99.90;;;;;;5044850;28;20044;-75
2023/12/20 06:21:19;;;;;;;22.88;4.93;;;7.40;99.90;;;;;;5047841;28;20049;-75
2023/12/20 06:23:44;;;;;;;22.75;4.32;;;7.40;99.90;;;;;;5053435;28;20403;-74
2023/12/20 06:26:10;;;;;;;24.75;4.90;;;7.40;99.90;;;;;;5048541;28;20045;-75
2023/12/20 06:28:36;;;;;;;33.90;5.60;;;7.50;99.90;;;;;;5050921;28;20070;-74
2023/12/20 06:31:02;;;;;;;21.48;4.38;;;7.50;99.90;;;;;;5049232;28;20053;-75
2023/12/20 06:33:30;;;;;;;25.02;5.10;;;7.50;99.90;;;;;;5051349;28;20480;-77
2023/12/20 06:35:56;;;;;;;27.52;4.75;;;7.50;99.90;;;;;;5035041;28;20049;-76
2023/12/20 06:38:22;;;;;;;25.55;4.43;;;7.50;99.90;;;;;;5041711;28;20051;-75
2023/12/20 06:40:48;;;;;;;26.40;5.40;;;7.50;99.90;;;;;;5034377;28;20048;-74
2023/12/20 06:43:13;;;;;;;25.42;4.88;;;7.50;99.90;;;;;;5047478;28;20044;-75
2023/12/20 06:45:39;;;;;;;23.05;4.30;;;7.50;99.90;;;;;;5052386;28;20472;-75
2023/12/20 06:48:05;;;;;;;25.10;4.50;;;7.50;99.90;;;;;;5050279;28;20040;-74
2023/12/20 06:50:31;;;;;;;23.52;4.75;;;7.50;99.90;;;;;;5040492;28;20384;-72
2023/12/20 06:52:57;;;;;;;24.02;4.88;;;7.60;99.90;;;;;;5054123;28;20051;-74
2023/12/20 06:55:22;;;;;;;19.92;4.68;;;7.50;99.90;;;;;;5052176;28;20091;-73
2023/12/20 06:57:48;;;;;;;30.95;5.35;;;7.60;99.90;;;;;;5048269;28;20049;-75
2023/12/20 07:00:15;;;;;;;29.80;5.05;;;7.60;99.90;;;;;;5038819;28;20053;-73
2023/12/20 07:02:40;;;;;;;23.58;5.10;;;7.60;99.90;;;;;;5052423;28;20048;-74
2023/12/20 07:05:06;;;;;;;29.65;5.47;;;7.60;99.90;;;;;;5054184;28;20128;-74
2023/12/20 07:07:32;;;;;;;31.02;5.47;;;7.60;99.90;;;;;;5050978;28;20053;-75
2023/12/20 07:09:58;;;;;;;27.60;6.65;;;7.60;99.90;;;;;;5045132;28;20128;-75
2023/12/20 07:12:23;;;;;;;30.95;5.10;;;7.60;99.90;;;;;;5041048;28;20123;-74
2023/12/20 07:14:49;;;;;;;31.77;5.13;;;7.60;99.90;;;;;;5054296;28;20049;-74
2023/12/20 07:17:15;;;;;;;27.02;6.43;;;7.70;99.90;;;;;;5052634;28;20499;-74
2023/12/20 07:19:42;;;;;;;27.73;6.00;;;7.70;99.90;;;;;;5053368;28;20040;-75
2023/12/20 07:22:08;;;;;;;25.02;5.97;;;7.70;99.90;;;;;;5052607;28;20098;-75
2023/12/20 07:24:34;;;;;;;26.73;4.85;;;7.70;99.90;;;;;;5036361;28;20052;-74
2023/12/20 07:27:00;;;;;;;26.35;5.18;;;7.80;99.90;;;;;;5052168;28;20057;-75
2023/12/20 07:29:26;;;;;;;22.65;4.78;;;7.80;99.90;;;;;;5053216;28;20507;-74
2023/12/20 07:31:55;;;;;;;29.42;4.80;;;7.80;99.90;;;;;;5046687;28;20092;-75
2023/12/20 07:34:21;;;;;;;28.48;5.18;;;7.80;99.90;;;;;;5052151;28;20033;-75
2023/12/20 07:36:47;;;;;;;26.10;4.70;;;7.80;99.90;;;;;;5028066;28;20088;-75
2023/12/20 07:39:13;;;;;;;24.40;5.40;;;7.80;99.90;;;;;;5031521;28;20092;-74
2023/12/20 07:41:39;;;;;;;17.73;4.20;;;7.90;99.90;;;;;;5045800;28;20044;-74
2023/12/20 07:44:06;;;;;;;16.98;4.32;;;7.90;99.90;;;;;;5053223;28;20522;-75
2023/12/20 07:46:31;;;;;;;25.92;5.30;;;7.90;99.90;;;;;;5049857;28;20108;-76
2023/12/20 07:48:57;;;;;;;22.02;4.38;;;7.90;99.90;;;;;;5048538;28;20496;-75
2023/12/20 07:51:23;;;;;;;27.70;5.10;;;7.90;99.90;;;;;;5043633;28;20049;-75
2023/12/20 07:53:49;;;;;;;25.95;4.15;;;7.90;99.90;;;;;;5052165;28;20057;-74
2023/12/20 07:56:16;;;;;;;19.77;4.57;;;7.90;99.90;;;;;;5052983;28;20037;-75
2023/12/20 07:58:42;;;;;;;38.58;5.47;;;7.90;99.90;;;;;;5051363;28;20113;-74
2023/12/20 08:01:08;;;;;;;28.83;4.57;;;8.00;99.90;;;;;;5047492;28;20049;-75
2023/12/20 08:03:34;;;;;;;26.63;5.30;;;7.90;99.90;;;;;;5052172;28;20061;-76
2023/12/20 08:06:00;;;;;;;26.10;4.90;;;8.00;99.90;;;;;;5053292;28;20045;-76
2023/12/20 08:08:26;;;;;;;20.98;4.88;;;8.00;99.90;;;;;;5052759;28;20053;-75
2023/12/20 08:10:51;;;;;;;19.52;4.50;;;8.00;99.90;;;;;;5018075;28;20060;-75
2023/12/20 08:13:17;;;;;;;28.23;5.18;;;8.00;99.90;;;;;;5046379;28;20049;-75
2023/12/20 08:15:43;;;;;;;25.88;5.07;;;8.00;99.90;;;;;;5053048;28;20049;-75
2023/12/20 08:18:08;;;;;;;20.60;4.10;;;7.90;99.90;;;;;;5051608;28;20049;-76
2023/12/20 08:20:34;;;;;;;23.17;4.80;;;8.00;99.90;;;;;;5035076;28;20115;-75
2023/12/20 08:23:00;;;;;;;22.63;4.53;;;8.00;99.90;;;;;;5050959;28;20048;-75
2023/12/20 08:25:27;;;;;;;27.77;5.22;;;8.00;99.90;;;;;;5049915;28;20091;-76
2023/12/20 08:27:53;;;;;;;26.38;4.78;;;8.00;99.90;;;;;;5034731;28;20455;-76
2023/12/20 08:30:21;;;;;;;27.63;5.20;;;8.00;99.90;;;;;;5052193;28;20053;-75
2023/12/20 08:32:51;;;;;;;25.20;4.50;;;8.00;99.90;;;;;;5041255;28;20543;-75
2023/12/20 08:35:17;;;;;;;18.58;3.53;;;8.10;99.90;;;;;;5049121;28;20041;-75
2023/12/20 08:37:43;;;;;;;6.90;1.63;;;8.00;99.90;;;;;;5032830;28;20075;-75
2023/12/20 08:40:09;;;;;;;6.90;1.70;;;7.50;99.90;;;;;;5034739;28;20049;-74
2023/12/20 08:42:35;;;;;;;9.57;2.13;;;7.20;99.90;;;;;;5050927;28;20083;-75
2023/12/20 08:45:01;;;;;;;6.28;1.70;;;7.10;99.90;;;;;;5038271;28;20087;-73
2023/12/20 08:47:26;;;;;;;8.15;2.13;;;6.90;99.90;;;;;;5048101;28;20064;-74
2023/12/20 08:49:58;;;;;;;8.65;2.35;;;6.70;99.90;;;;;;5049706;28;20056;-74
2023/12/20 08:52:23;;;;;;;11.20;2.72;;;6.60;99.90;;;;;;5051422;28;20052;-75
2023/12/20 08:54:51;;;;;;;9.25;1.90;;;6.50;99.90;;;;;;5047115;28;20049;-73
2023/12/20 08:57:19;;;;;;;9.32;2.10;;;6.40;99.90;;;;;;5051054;28;20426;-74
2023/12/20 08:59:45;;;;;;;15.65;3.03;;;6.40;99.90;;;;;;5040565;28;20044;-73
2023/12/20 09:02:11;;;;;;;11.15;2.30;;;6.30;99.90;;;;;;5033621;28;20104;-72
2023/12/20 09:04:36;;;;;;;12.02;2.75;;;6.30;99.90;;;;;;5045399;28;20049;-74
2023/12/20 09:07:02;;;;;;;13.43;2.40;;;6.30;99.90;;;;;;5044114;28;20053;-73
2023/12/20 09:09:28;;;;;;;12.73;3.00;;;6.30;99.90;;;;;;5051723;28;20041;-74
2023/12/20 09:11:53;;;;;;;17.88;2.97;;;6.30;99.90;;;;;;5051125;28;20476;-73
2023/12/20 09:14:19;;;;;;;21.42;3.75;;;6.30;99.90;;;;;;5027356;28;20488;-72
2023/12/20 09:16:45;;;;;;;22.33;3.72;;;6.30;99.90;;;;;;5043024;28;20049;-72
2023/12/20 09:19:10;;;;;;;16.90;2.80;;;6.30;99.90;;;;;;5050517;28;20051;-73
2023/12/20 09:21:36;;;;;;;17.98;3.03;;;6.30;99.90;;;;;;5051709;28;20045;-72
2023/12/20 09:24:01;;;;;;;16.30;3.03;;;6.30;99.90;;;;;;5042811;28;20452;-72
2023/12/20 09:26:27;;;;;;;16.17;3.67;;;6.30;99.90;;;;;;5049824;28;20079;-71
2023/12/20 09:28:53;;;;;;;16.60;2.50;;;6.40;99.90;;;;;;5051130;28;20085;-71
2023/12/20 09:31:19;;;;;;;10.40;2.50;;;6.30;99.90;;;;;;5051330;28;20049;-72
2023/12/20 09:33:44;;;;;;;13.98;2.50;;;6.30;99.90;;;;;;5031058;28;20494;-72
2023/12/20 09:36:10;;;;;;;9.38;2.22;;;6.30;99.90;;;;;;5040106;28;20080;-72
2023/12/20 09:38:35;;;;;;;11.85;1.98;;;6.30;99.90;;;;;;5048538;28;20056;-71
2023/12/20 09:41:04;;;;;;;9.80;1.98;;;6.40;99.90;;;;;;5038647;28;20128;-73
2023/12/20 09:43:30;;;;;;;11.13;1.90;;;6.40;99.90;;;;;;5033868;28;20381;-72
2023/12/20 09:46:02;;;;;;;13.40;2.53;;;6.50;99.90;;;;;;5043411;28;20049;-73
2023/12/20 09:48:28;;;;;;;7.88;1.75;;;6.50;99.90;;;;;;5044348;28;20045;-73
2023/12/20 09:50:56;;;;;;;7.03;1.70;;;6.50;99.90;;;;;;5052051;28;20045;-73
2023/12/20 09:53:23;;;;;;;9.43;2.28;;;6.50;99.90;;;;;;5051002;28;20507;-73
2023/12/20 09:55:49;;;;;;;14.32;2.35;;;6.50;99.90;;;;;;5050285;28;20614;-73
2023/12/20 09:58:15;;;;;;;13.23;2.60;;;6.60;99.90;;;;;;5050749;28;20060;-73
2023/12/20 10:00:41;;;;;;;12.13;2.00;;;6.60;99.90;;;;;;5035043;28;20075;-73
2023/12/20 10:03:07;;;;;;;8.35;1.63;;;6.60;99.90;;;;;;5037694;28;20045;-74
2023/12/20 10:05:34;;;;;;;9.73;2.00;;;6.60;99.90;;;;;;5047754;28;20049;-73
2023/12/20 10:08:00;;;;;;;12.77;3.08;;;6.70;99.90;;;;;;5040783;28;20124;-73
2023/12/20 10:10:27;;;;;;;15.70;2.58;;;6.70;99.90;;;;;;5037215;28;20081;-74
2023/12/20 10:13:03;;;;;;;8.82;2.22;;;6.80;99.90;;;;;;5032190;28;20045;-73
2023/12/20 10:15:28;;;;;;;16.70;2.70;;;6.90;99.90;;;;;;5042105;28;20049;-73
2023/12/20 10:17:54;;;;;;;15.80;2.97;;;7.00;99.90;;;;;;5050102;28;20045;-74
2023/12/20 10:20:20;;;;;;;9.77;2.40;;;7.10;99.90;;;;;;5051428;28;20064;-74
2023/12/20 10:22:47;;;;;;;16.08;2.10;;;7.20;99.90;;;;;;5051708;28;20056;-74
2023/12/20 10:25:13;;;;;;;14.75;2.42;;;7.30;99.90;;;;;;5051605;28;20131;-75
2023/12/20 10:27:39;;;;;;;14.15;2.72;;;7.30;99.90;;;;;;5046680;28;20472;-74
2023/12/20 10:30:05;;;;;;;15.02;2.42;;;7.30;99.90;;;;;;5049247;28;20111;-73
2023/12/20 10:32:31;;;;;;;14.75;3.17;;;7.40;99.90;;;;;;5049997;28;20049;-74
2023/12/20 10:34:57;;;;;;;14.40;2.58;;;7.40;99.90;;;;;;5051590;28;20124;-75
2023/12/20 10:37:23;;;;;;;14.50;3.00;;;7.50;99.90;;;;;;5049804;28;20556;-74
2023/12/20 10:39:56;;;;;;;11.10;2.28;;;7.60;99.90;;;;;;5042491;28;20041;-73
2023/12/20 10:42:22;;;;;;;17.00;2.78;;;7.60;99.90;;;;;;5054984;28;20062;-74
2023/12/20 10:44:51;;;;;;;12.05;2.17;;;7.60;99.90;;;;;;5054087;28;20045;-74
2023/12/20 10:47:17;;;;;;;11.02;2.25;;;7.60;99.90;;;;;;5054846;28;20049;-74
2023/12/20 10:49:44;;;;;;;21.25;3.20;;;7.60;99.90;;;;;;5048711;28;20041;-73
2023/12/20 10:52:12;;;;;;;12.15;3.15;;;7.60;99.90;;;;;;5068953;28;20049;-76
2023/12/20 10:54:39;;;;;;;17.77;3.67;;;7.60;99.90;;;;;;5053012;28;20044;-74
2023/12/20 10:57:06;;;;;;;15.07;2.70;;;7.50;99.90;;;;;;5053712;28;20059;-75
2023/12/20 10:59:35;;;;;;;17.88;2.80;;;7.50;99.90;;;;;;5032306;28;20084;-74
2023/12/20 11:02:05;;;;;;;13.02;2.92;;;7.50;99.90;;;;;;5052857;28;20091;-74
2023/12/20 11:04:47;;;;;;;12.32;3.30;;;7.50;99.90;;;;;;5067195;28;20041;-73
2023/12/20 11:07:25;;;;;;;17.38;2.97;;;7.50;99.90;;;;;;5032235;28;20088;-75
2023/12/20 11:10:13;;;;;;;13.13;3.05;;;7.60;99.90;;;;;;5043563;28;20056;-75
2023/12/20 11:12:54;;;;;;;18.13;2.95;;;7.60;99.90;;;;;;5042740;28;20045;-75
2023/12/20 11:15:21;;;;;;;21.25;3.78;;;7.60;99.90;;;;;;5047576;28;20045;-75
2023/12/20 11:17:55;;;;;;;14.45;3.92;;;7.60;99.90;;;;;;5041415;28;20083;-75
2023/12/20 11:20:23;;;;;;;16.90;3.45;;;7.80;99.90;;;;;;5035795;28;20114;-74
2023/12/20 11:22:54;;;;;;;19.25;3.58;;;7.70;99.90;;;;;;5051743;28;20048;-74
2023/12/20 11:25:20;;;;;;;17.08;3.50;;;7.70;99.90;;;;;;5052263;28;20045;-78
2023/12/20 11:28:10;;;;;;;13.98;3.30;;;7.70;99.90;;;;;;5049940;28;20048;-79
2023/12/20 11:30:54;;;;;;;14.77;3.30;;;7.80;99.90;;;;;;5053144;28;20040;-79
2023/12/20 11:33:29;;;;;;;19.63;4.47;;;7.70;99.90;;;;;;5047577;28;20037;-79
2023/12/20 11:35:59;;;;;;;13.25;2.90;;;7.70;99.90;;;;;;5051964;28;20041;-79
2023/12/20 11:38:25;;;;;;;19.17;3.85;;;7.70;99.90;;;;;;5054536;28;20068;-80
2023/12/20 11:40:54;;;;;;;21.15;4.20;;;7.70;99.90;;;;;;5052483;28;20424;-80
2023/12/20 11:43:35;;;;;;;14.10;3.58;;;7.70;99.90;;;;;;5053391;28;20151;-79
2023/12/20 11:46:05;;;;;;;20.70;3.88;;;7.80;99.90;;;;;;5049276;28;20569;-80
2023/12/20 11:48:32;;;;;;;21.50;3.92;;;7.80;99.90;;;;;;5053836;28;20124;-81
2023/12/20 11:50:59;;;;;;;21.65;3.25;;;7.80;99.90;;;;;;5052235;28;20056;-80
2023/12/20 11:53:25;;;;;;;14.05;2.83;;;7.80;99.90;;;;;;5053824;28;20048;-80
2023/12/20 11:55:51;;;;;;;23.45;3.25;;;7.90;99.90;;;;;;5053373;28;20373;-78
2023/12/20 11:58:17;;;;;;;18.50;3.60;;;7.80;99.90;;;;;;5047722;28;20045;-80
2023/12/20 12:00:43;;;;;;;20.40;3.63;;;7.90;99.90;;;;;;5038643;28;20392;-80
2023/12/20 12:03:09;;;;;;;17.58;4.03;;;7.90;99.90;;;;;;5053378;28;20056;-80
2023/12/20 12:05:38;;;;;;;16.77;3.47;;;7.90;99.90;;;;;;5053144;28;20056;-76
2023/12/20 12:08:04;;;;;;;16.38;3.13;;;7.90;99.90;;;;;;5052262;28;20040;-79
2023/12/20 12:10:30;;;;;;;12.80;3.05;;;7.90;99.90;;;;;;5052761;28;20045;-79
2023/12/20 12:12:56;;;;;;;17.05;3.78;;;7.80;99.90;;;;;;5049024;28;20048;-80
2023/12/20 12:15:22;;;;;;;12.15;2.88;;;7.80;99.90;;;;;;5052035;28;20056;-80
2023/12/20 12:17:57;;;;;;;20.08;3.45;;;7.90;99.90;;;;;;5051138;28;20048;-80
2023/12/20 12:20:23;;;;;;;16.98;3.53;;;7.80;99.90;;;;;;5053481;28;20385;-81
2023/12/20 12:23:04;;;;;;;15.25;3.15;;;7.80;99.90;;;;;;5051325;28;20056;-81
2023/12/20 12:25:31;;;;;;;15.88;3.53;;;7.80;99.90;;;;;;5035907;28;20395;-81
2023/12/20 12:27:58;;;;;;;17.23;3.70;;;7.80;99.90;;;;;;5050613;28;20492;-80
2023/12/20 12:30:24;;;;;;;19.75;3.53;;;7.80;99.90;;;;;;5053156;28;20045;-80
2023/12/20 12:32:53;;;;;;;20.23;3.20;;;7.80;99.90;;;;;;5052252;28;20076;-80
2023/12/20 12:35:19;;;;;;;15.10;3.08;;;7.70;99.90;;;;;;5052069;28;20049;-81
2023/12/20 12:37:45;;;;;;;17.88;4.55;;;7.80;99.90;;;;;;5051674;28;20049;-80
2023/12/20 12:40:16;;;;;;;14.73;3.67;;;7.80;99.90;;;;;;5040794;28;20068;-80
2023/12/20 12:42:43;;;;;;;13.35;2.67;;;7.80;99.90;;;;;;5051226;28;20083;-78
2023/12/20 12:45:09;;;;;;;15.43;3.53;;;7.80;99.90;;;;;;5033133;28;20064;-80